x

North Huron - 32nm Northeast Of Alpena, Mi (45003) Wave Buoy

3:50pm - Fri 31st Oct 2014 All times are CDT. -5 hours from GMT.

  • Sig Wave height 8.2ft
  • Swell Direction
  • Peak Period 6s
  • Average Period 5s
  • Wind
    34mph, 40mph gusts
  • Sea Temp 50°f
  • Air Temp 37°f
  • Sea Pressure 1021mb
  • North Huron - 32nm Northeast Of Alpena, Mi
  • North Huron - 32nm Northeast Of Alpena, Mi

More Historic Weather Station data

Upgrade to MSW Pro to gain access to the past 30 days of data for over 8000 Wavebouys and Weather Stations around the globe.

Join Pro

Comparision Forecast

View Surf forecast
   
Fri 10/31 3:50pm 8ft 6s 5s 34 40 mph 1021mb 50f 37f
2:50pm 8ft 6s 5s 31 40 mph 1020.2mb 50f 37f
1:50pm 9.5ft 6s 6s 34 38 mph 1019.5mb 50f 36f
12:50pm 9ft 6s 5s 36 43 mph 1018.9mb 50f 36f
11:50am 8ft 6s 5s 34 40 mph 1018.4mb 51f 36f
10:50am 9ft 6s 5s 34 43 mph 1017.7mb 51f 37f
9:50am 9ft 7s 5s 36 45 mph 1016.8mb 51f 37f
8:50am 7.5ft 6s 5s 36 45 mph 1015.7mb 51f 37f
7:50am 7ft 6s 5s 36 43 mph 1014.5mb 51f 38f
6:50am 4.5ft 4s 4s 34 43 mph 1012.9mb 51f 38f
5:50am 1.6ft 4s 3s 29 34 mph 1011.6mb 51f 41f
4:50am 2ft 4s 3s 11 13 mph 1011.6mb 51f 44f
3:50am 2ft 4s 3s 13 16 mph 1011.4mb 51f 44f
2:50am 2ft 4s 3s 13 16 mph 1011.7mb 51f 44f
1:50am 2ft 3s 3s 13 16 mph 1011.9mb 51f 44f
12:50am 1.6ft 3s 3s 13 18 mph 1012.2mb 51f 45f
Thu 10/30 11:50pm 1.6ft 3s 3s 16 18 mph 1012.7mb 51f 45f
10:50pm 1.3ft 3s 3s 16 18 mph 1013.2mb 51f 46f
9:50pm 1.3ft 3s 3s 11 13 mph 1014mb 51f 46f
8:50pm 1.3ft 3s 3s 16 18 mph 1014.6mb 51f 45f
7:50pm 0.7ft  -  3s 13 18 mph 1015.3mb 51f 45f
6:50pm 0.7ft  -  3s 9 11 mph 1016mb 51f 44f
5:50pm 0.7ft  -  3s 11 13 mph 1016.3mb 51f 44f
4:50pm 0.7ft  -  3s 9 11 mph 1016.7mb 51f 43f
3:50pm 1ft 4s 3s 7 9 mph 1017mb 51f 43f
2:50pm 1ft 3s 3s 7 11 mph 1017.1mb 51f 44f
1:50pm 1.3ft 3s 3s 7 9 mph 1017.4mb 51f 43f
12:50pm 1.3ft 4s 3s 9 13 mph 1018mb 51f 43f
11:50am 1.3ft 4s 3s 9 13 mph 1018.5mb 51f 43f
10:50am 1.3ft 4s 3s 9 13 mph 1018.8mb 51f 43f
9:50am 1.3ft 4s 4s 7 9 mph 1019mb 51f 42f
8:50am 1.3ft 4s 3s 7 9 mph 1018.9mb 51f 42f
7:50am 2ft 5s 4s 9 11 mph 1018.9mb 51f 42f
6:50am 2ft 5s 4s 9 11 mph 1018.4mb 51f 42f
5:50am 2.5ft 5s 4s 9 13 mph 1018.1mb 51f 42f
4:50am 2.5ft 5s 4s 11 16 mph 1018.1mb 51f 42f
3:50am 3ft 5s 4s 11 16 mph 1017.9mb 51f 42f
2:50am 3.5ft 6s 4s 16 18 mph 1017.8mb 51f 42f
1:50am 3.5ft 6s 4s 16 18 mph 1017.6mb 51f 42f
12:50am 4ft 6s 4s 18 22 mph 1017.2mb 51f 42f
Wed 10/29 11:50pm 4.5ft 6s 5s 18 22 mph 1017.1mb 51f 43f
10:50pm 5ft 6s 5s 20 25 mph 1016.8mb 51f 43f
9:50pm 5ft 6s 5s 22 27 mph 1016.5mb 51f 43f
8:50pm 5.5ft 6s 5s 22 27 mph 1016.1mb 51f 44f
7:50pm 6ft 6s 5s 25 29 mph 1015.7mb 51f 44f
6:50pm 5.5ft 6s 5s 25 29 mph 1015.2mb 51f 44f
5:50pm 5.5ft 6s 5s 25 31 mph 1014.2mb 51f 45f
4:50pm 6ft 6s 5s 25 31 mph 1013.2mb 51f 45f
3:50pm 6ft 6s 5s 25 31 mph 1012.4mb 51f 45f
2:50pm 5.5ft 6s 5s 25 31 mph 1011.7mb 51f 45f
1:50pm 6ft 6s  -  25 34 mph 1011mb 51f 45f
12:50pm 6ft 6s 5s 25 29 mph 1010.6mb 51f 45f
11:50am 6ft 6s 5s 25 31 mph 1010.3mb 51f 45f
10:50am 5ft 5s 4s 25 31 mph 1009.7mb 51f 46f
9:50am 4.5ft 5s 4s 22 29 mph 1009.1mb 51f 46f
8:50am 4.5ft 5s 4s 22 27 mph 1008.8mb 51f 46f
7:50am 4.5ft 5s 4s 20 25 mph 1008.4mb 51f 46f
6:50am 4.5ft 5s 4s 22 27 mph 1007.7mb 51f 46f
5:50am 4.5ft 5s 4s 25 31 mph 1007mb 51f 47f
4:50am 4ft 5s 4s 25 31 mph 1006.9mb 51f 48f
3:50am 4.5ft 5s 4s 22 27 mph 1006.7mb 51f 48f
2:50am 4ft 5s 4s 25 29 mph 1006.9mb 51f 48f
1:50am 3.5ft 5s 4s 22 27 mph 1006.8mb 51f 49f
12:50am 3.5ft 5s 4s 20 25 mph 1006.9mb 51f 49f
Tue 10/28 11:50pm 3.5ft 6s 4s 20 25 mph 1007.1mb 51f 50f
10:50pm 4.5ft 5s 4s 22 27 mph 1007.2mb 51f 50f
9:50pm 4ft 5s 4s 25 31 mph 1006.7mb 51f 51f
8:50pm 3.5ft 5s 4s 22 27 mph 1006.3mb 51f 52f
7:50pm 3.5ft 5s 4s 18 22 mph 1005.7mb 51f 53f
6:50pm 3.5ft 5s 4s 7 9 mph 1005.5mb 51f 52f
5:50pm 3.5ft 6s 4s 11 13 mph 1005mb 51f 52f
4:50pm 3.5ft 6s 4s 13 18 mph 1004.3mb 51f 53f
3:50pm 3.5ft 6s 4s 13 16 mph 1003.4mb 51f 53f
2:50pm 3ft 5s 4s 18 20 mph 1002.2mb 51f 54f
1:50pm 3ft 5s 4s 13 16 mph 1001.8mb 51f 53f
12:50pm 3.5ft 5s 4s 9
mph
1001.3mb 51f 53f
11:50am 3.5ft 5s 4s 18 22 mph 1001.5mb 51f 55f
10:50am 3.5ft 5s 4s 18 20 mph 999.9mb 51f 55f
9:50am 4ft 5s 4s 18 22 mph 999.6mb 51f 56f
8:50am 3.5ft 5s 4s 20 25 mph 999.6mb 51f 55f
7:50am 3.5ft 5s 4s 20 22 mph 999.7mb 51f 56f
6:50am 3ft 5s 4s 20 25 mph 999.9mb 51f 55f
5:50am 3ft 5s 4s 13 16 mph 1000.4mb 51f 54f
4:50am 3.5ft 6s 4s 13 16 mph 1001.1mb 51f 54f
3:50am 3.5ft 6s 4s 13 16 mph 1001.5mb 51f 53f
2:50am 4ft 6s 4s 16 18 mph 1002.4mb 51f 52f
1:50am 4.5ft 6s 4s 18 20 mph 1003.4mb 51f 52f
12:50am 5ft 6s 5s 20 25 mph 1003.7mb 52f 52f
Mon 10/27 11:50pm 5ft 6s 4s 22 27 mph 1004.1mb 52f 51f
10:50pm 5ft 5s 4s 25 31 mph 1005.1mb 52f 51f